Time;durP1;ratioP1;P1;durP2;ratioP2;P2;SDS_P1;SDS_P2;PMS_P1;PMS_P2;Temp;Humidity;BMP_temperature;BMP_pressure;BME280_temperature;BME280_humidity;BME280_pressure;Samples;Min_cycle;Max_cycle;Signal;HPM_P1;HPM_P2
2023/07/02 00:02:25;;;;;;;;;;;;;;;;;;2197968;67;1707;-22
2023/07/02 00:04:56;;;;;;;;;;;;;;;;;;2195370;67;2225;-23
2023/07/02 00:07:26;;;;;;;;;;;;;;;;;;2198065;67;1861;-22
2023/07/02 00:09:56;;;;;;;;;;;;;;;;;;2197892;67;1936;-24
2023/07/02 00:12:26;;;;;;;;;;;;;;;;;;2195587;67;1700;-22
2023/07/02 00:14:56;;;;;;;;;;;;;;;;;;2194866;59;1655;-23
2023/07/02 00:17:27;;;;;;;;;;;;;;;;;;2198015;67;1806;-22
2023/07/02 00:19:57;;;;;;;;;;;;;;;;;;2198374;67;2268;-24
2023/07/02 00:22:27;;;;;;;;;;;;;;;;;;2198036;59;1533;-22
2023/07/02 00:24:57;;;;;;;;;;;;;;;;;;2198368;67;2244;-23
2023/07/02 00:27:28;;;;;;;;;;;;;;;;;;2197853;59;1876;-22
2023/07/02 00:29:58;;;;;;;;;;;;;;;;;;2197887;59;1999;-22
2023/07/02 00:32:31;;;;;;;;;;;;;;;;;;2194392;59;1772;-22
2023/07/02 00:35:01;;;;;;;;;;;;;;;;;;2195524;67;1980;-23
2023/07/02 00:37:31;;;;;;;;;;;;;;;;;;2192999;67;2400;-22
2023/07/02 00:40:02;;;;;;;;;;;;;;;;;;2197590;67;1235;-23
2023/07/02 00:42:32;;;;;;;;;;;;;;;;;;2198175;67;2049;-22
2023/07/02 00:45:03;;;;;;;;;;;;;;;;;;2197923;59;1609;-23
2023/07/02 00:47:34;;;;;;;;;;;;;;;;;;2198125;67;1401;-22
2023/07/02 00:50:04;;;;;;;;;;;;;;;;;;2197407;59;2170;-22
2023/07/02 00:52:34;;;;;;;;;;;;;;;;;;2197619;59;2198;-23
2023/07/02 00:55:05;;;;;;;;;;;;;;;;;;2195319;67;1570;-22
2023/07/02 00:57:35;;;;;;;;;;;;;;;;;;2197384;59;1699;-23
2023/07/02 01:00:06;;;;;;;;;;;;;;;;;;2195710;59;1830;-23
2023/07/02 01:02:38;;;;;;;;;;;;;;;;;;2197521;59;2146;-23
2023/07/02 01:05:09;;;;;;;;;;;;;;;;;;2192782;59;2594;-23
2023/07/02 01:07:39;;;;;;;;;;;;;;;;;;2197986;67;1571;-23
2023/07/02 01:10:09;;;;;;;;;;;;;;;;;;2196966;67;1933;-23
2023/07/02 01:12:40;;;;;;;;;;;;;;;;;;2198185;67;1298;-22
2023/07/02 01:15:10;;;;;;;;;;;;;;;;;;2197035;59;1345;-22
2023/07/02 01:17:41;;;;;;;;;;;;;;;;;;2197740;59;2262;-24
2023/07/02 01:20:12;;;;;;;;;;;;;;;;;;2197239;67;1656;-22
2023/07/02 01:22:42;;;;;;;;;;;;;;;;;;2198278;59;1958;-25
2023/07/02 01:25:14;;;;;;;;;;;;;;;;;;2197012;67;1786;-23
2023/07/02 01:27:48;;;;;;;;;;;;;;;;;;2198464;59;1433;-22
2023/07/02 01:30:18;;;;;;;;;;;;;;;;;;2197260;59;1938;-22
2023/07/02 01:32:48;;;;;;;;;;;;;;;;;;2195795;67;1898;-23
2023/07/02 01:35:21;;;;;;;;;;;;;;;;;;2197472;67;2068;-23
2023/07/02 01:37:51;;;;;;;;;;;;;;;;;;2193226;59;2117;-23
2023/07/02 01:40:22;;;;;;;;;;;;;;;;;;2197494;67;2227;-22
2023/07/02 01:42:52;;;;;;;;;;;;;;;;;;2198601;67;1628;-23
2023/07/02 01:45:22;;;;;;;;;;;;;;;;;;2197324;67;1834;-23
2023/07/02 01:47:52;;;;;;;;;;;;;;;;;;2198662;67;1548;-23
2023/07/02 01:50:22;;;;;;;;;;;;;;;;;;2197746;59;1928;-23
2023/07/02 01:52:53;;;;;;;;;;;;;;;;;;2196443;59;2192;-24
2023/07/02 01:55:23;;;;;;;;;;;;;;;;;;2194359;67;1823;-22
2023/07/02 01:57:53;;;;;;;;;;;;;;;;;;2196530;59;1709;-23
2023/07/02 02:00:26;;;;;;;;;;;;;;;;;;2194160;59;2061;-22
2023/07/02 02:02:57;;;;;;;;;;;;;;;;;;2198160;67;1304;-22
2023/07/02 02:05:27;;;;;;;;;;;;;;;;;;2192084;67;1917;-23
2023/07/02 02:07:57;;;;;;;;;;;;;;;;;;2198590;67;1690;-22
2023/07/02 02:10:27;;;;;;;;;;;;;;;;;;2198250;67;1936;-22
2023/07/02 02:12:58;;;;;;;;;;;;;;;;;;2195417;67;1637;-22
2023/07/02 02:15:28;;;;;;;;;;;;;;;;;;2193229;59;1539;-22
2023/07/02 02:17:58;;;;;;;;;;;;;;;;;;2198944;67;1177;-22
2023/07/02 02:20:28;;;;;;;;;;;;;;;;;;2198295;67;1325;-22
2023/07/02 02:22:58;;;;;;;;;;;;;;;;;;2198437;59;1750;-23
2023/07/02 02:25:29;;;;;;;;;;;;;;;;;;2194098;67;1403;-22
2023/07/02 02:27:59;;;;;;;;;;;;;;;;;;2197006;59;1191;-22
2023/07/02 02:30:29;;;;;;;;;;;;;;;;;;2196535;59;2266;-22
2023/07/02 02:32:59;;;;;;;;;;;;;;;;;;2192116;67;1418;-23
2023/07/02 02:35:30;;;;;;;;;;;;;;;;;;2197281;67;1414;-22
2023/07/02 02:38:04;;;;;;;;;;;;;;;;;;2198973;67;1656;-22
2023/07/02 02:40:34;;;;;;;;;;;;;;;;;;2198447;67;1511;-21
2023/07/02 02:43:05;;;;;;;;;;;;;;;;;;2195556;59;1642;-22
2023/07/02 02:45:35;;;;;;;;;;;;;;;;;;2198599;67;1680;-22
2023/07/02 02:48:05;;;;;;;;;;;;;;;;;;2197650;59;2133;-22
2023/07/02 02:50:36;;;;;;;;;;;;;;;;;;2198512;59;1937;-22
2023/07/02 02:53:06;;;;;;;;;;;;;;;;;;2197483;59;2252;-22
2023/07/02 02:55:36;;;;;;;;;;;;;;;;;;2198690;67;1701;-22
2023/07/02 02:58:06;;;;;;;;;;;;;;;;;;2195150;67;1909;-22
2023/07/02 03:00:38;;;;;;;;;;;;;;;;;;2195567;59;1782;-22
2023/07/02 03:03:08;;;;;;;;;;;;;;;;;;2198129;67;1778;-22
2023/07/02 03:05:38;;;;;;;;;;;;;;;;;;2194509;67;1482;-22
2023/07/02 03:08:08;;;;;;;;;;;;;;;;;;2198638;67;1375;-22
2023/07/02 03:10:39;;;;;;;;;;;;;;;;;;2196169;67;1953;-21
2023/07/02 03:13:09;;;;;;;;;;;;;;;;;;2198108;67;1682;-23
2023/07/02 03:15:39;;;;;;;;;;;;;;;;;;2198648;59;1308;-22
2023/07/02 03:18:09;;;;;;;;;;;;;;;;;;2192013;67;1894;-21
2023/07/02 03:20:40;;;;;;;;;;;;;;;;;;2198384;67;1734;-22
2023/07/02 03:23:10;;;;;;;;;;;;;;;;;;2198542;59;1769;-22
2023/07/02 03:25:40;;;;;;;;;;;;;;;;;;2198681;59;1285;-22
2023/07/02 03:28:10;;;;;;;;;;;;;;;;;;2198809;59;1314;-21
2023/07/02 03:30:40;;;;;;;;;;;;;;;;;;2197652;59;2069;-23
2023/07/02 03:33:12;;;;;;;;;;;;;;;;;;2198326;67;1511;-21
2023/07/02 03:35:42;;;;;;;;;;;;;;;;;;2198676;67;1983;-21
2023/07/02 03:38:12;;;;;;;;;;;;;;;;;;2198176;67;1144;-22
2023/07/02 03:40:43;;;;;;;;;;;;;;;;;;2198680;67;1385;-21
2023/07/02 03:43:13;;;;;;;;;;;;;;;;;;2198706;59;1706;-22
2023/07/02 03:45:43;;;;;;;;;;;;;;;;;;2198604;67;1979;-21
2023/07/02 03:48:13;;;;;;;;;;;;;;;;;;2198344;67;1285;-22
2023/07/02 03:50:43;;;;;;;;;;;;;;;;;;2199044;59;1947;-22
2023/07/02 03:53:14;;;;;;;;;;;;;;;;;;2198004;59;1606;-22
2023/07/02 03:55:44;;;;;;;;;;;;;;;;;;2193452;67;1230;-21
2023/07/02 03:58:14;;;;;;;;;;;;;;;;;;2198602;67;2118;-22
2023/07/02 04:00:44;;;;;;;;;;;;;;;;;;2198725;67;1940;-21
2023/07/02 04:03:15;;;;;;;;;;;;;;;;;;2198326;67;1730;-22
2023/07/02 04:05:45;;;;;;;;;;;;;;;;;;2198765;59;2389;-22
2023/07/02 04:08:15;;;;;;;;;;;;;;;;;;2194550;67;1568;-21
2023/07/02 04:10:46;;;;;;;;;;;;;;;;;;2197963;67;1936;-22
2023/07/02 04:13:16;;;;;;;;;;;;;;;;;;2197518;59;1785;-21
2023/07/02 04:15:46;;;;;;;;;;;;;;;;;;2198025;67;1511;-20
2023/07/02 04:18:17;;;;;;;;;;;;;;;;;;2195190;67;1667;-20
2023/07/02 04:20:47;;;;;;;;;;;;;;;;;;2198106;67;1202;-20
2023/07/02 04:23:17;;;;;;;;;;;;;;;;;;2197816;59;1651;-21
2023/07/02 04:25:47;;;;;;;;;;;;;;;;;;2198669;59;1809;-20
2023/07/02 04:28:18;;;;;;;;;;;;;;;;;;2197984;67;1499;-21
2023/07/02 04:30:51;;;;;;;;;;;;;;;;;;2198364;59;2008;-21
2023/07/02 04:33:21;;;;;;;;;;;;;;;;;;2197778;67;1657;-20
2023/07/02 04:35:52;;;;;;;;;;;;;;;;;;2198695;67;1797;-20
2023/07/02 04:38:22;;;;;;;;;;;;;;;;;;2191841;67;1443;-21
2023/07/02 04:40:52;;;;;;;;;;;;;;;;;;2199058;67;2565;-21
2023/07/02 04:43:29;;;;;;;;;;;;;;;;;;2198021;59;1936;-21
2023/07/02 04:46:02;;;;;;;;;;;;;;;;;;2197920;67;1225;-21
2023/07/02 04:48:32;;;;;;;;;;;;;;;;;;2198016;67;1945;-21
2023/07/02 04:51:03;;;;;;;;;;;;;;;;;;2198083;59;1658;-21
2023/07/02 04:53:37;;;;;;;;;;;;;;;;;;2198344;67;1446;-20
2023/07/02 04:56:07;;;;;;;;;;;;;;;;;;2198166;67;2029;-21
2023/07/02 04:58:38;;;;;;;;;;;;;;;;;;2198791;59;2303;-21
2023/07/02 05:01:08;;;;;;;;;;;;;;;;;;2197877;59;1799;-20
2023/07/02 05:03:39;;;;;;;;;;;;;;;;;;2197744;67;1674;-20
2023/07/02 05:06:09;;;;;;;;;;;;;;;;;;2198127;67;2352;-21
2023/07/02 05:08:39;;;;;;;;;;;;;;;;;;2198468;67;1998;-20
2023/07/02 05:11:09;;;;;;;;;;;;;;;;;;2197736;67;1552;-21
2023/07/02 05:13:40;;;;;;;;;;;;;;;;;;2198408;59;1428;-20
2023/07/02 05:16:10;;;;;;;;;;;;;;;;;;2198188;67;1968;-21
2023/07/02 05:18:40;;;;;;;;;;;;;;;;;;2198442;67;1553;-21
2023/07/02 05:21:11;;;;;;;;;;;;;;;;;;2197490;59;1640;-20
2023/07/02 05:23:41;;;;;;;;;;;;;;;;;;2198729;67;2217;-21
2023/07/02 05:26:11;;;;;;;;;;;;;;;;;;2197826;59;2024;-21
2023/07/02 05:28:41;;;;;;;;;;;;;;;;;;2197762;67;1916;-20
2023/07/02 05:31:12;;;;;;;;;;;;;;;;;;2198068;59;1274;-20
2023/07/02 05:33:42;;;;;;;;;;;;;;;;;;2198073;67;1602;-21
2023/07/02 05:36:12;;;;;;;;;;;;;;;;;;2194856;67;1246;-20
2023/07/02 05:38:42;;;;;;;;;;;;;;;;;;2198495;67;1271;-20
2023/07/02 05:41:22;;;;;;;;;;;;;;;;;;2198467;67;1318;-20
2023/07/02 05:43:55;;;;;;;;;;;;;;;;;;2199062;59;1621;-20
2023/07/02 05:46:25;;;;;;;;;;;;;;;;;;2197938;67;1682;-20
2023/07/02 05:48:57;;;;;;;;;;;;;;;;;;2198436;67;1983;-20
2023/07/02 05:51:30;;;;;;;;;;;;;;;;;;2199181;59;1793;-20
2023/07/02 05:54:00;;;;;;;;;;;;;;;;;;2198421;67;1560;-20
2023/07/02 05:56:33;;;;;;;;;;;;;;;;;;2198649;67;1568;-20
2023/07/02 05:59:04;;;;;;;;;;;;;;;;;;2198458;59;1676;-20
2023/07/02 06:01:34;;;;;;;;;;;;;;;;;;2198773;59;2034;-20
2023/07/02 06:04:04;;;;;;;;;;;;;;;;;;2198909;67;1673;-20
2023/07/02 06:06:34;;;;;;;;;;;;;;;;;;2198442;67;1238;-20
2023/07/02 06:09:04;;;;;;;;;;;;;;;;;;2198513;67;1989;-19
2023/07/02 06:11:35;;;;;;;;;;;;;;;;;;2198592;67;1556;-20
2023/07/02 06:14:05;;;;;;;;;;;;;;;;;;2198566;67;1497;-19
2023/07/02 06:16:35;;;;;;;;;;;;;;;;;;2195570;67;2257;-19
2023/07/02 06:19:05;;;;;;;;;;;;;;;;;;2195459;59;1625;-19
2023/07/02 06:21:36;;;;;;;;;;;;;;;;;;2198854;59;1669;-19
2023/07/02 06:24:09;;;;;;;;;;;;;;;;;;2195182;67;1346;-19
2023/07/02 06:26:39;;;;;;;;;;;;;;;;;;2199035;59;1685;-19
2023/07/02 06:29:09;;;;;;;;;;;;;;;;;;2198657;67;1927;-20
2023/07/02 06:31:40;;;;;;;;;;;;;;;;;;2198971;59;1274;-19
2023/07/02 06:34:10;;;;;;;;;;;;;;;;;;2198653;59;1612;-19
2023/07/02 06:36:40;;;;;;;;;;;;;;;;;;2195133;67;2037;-19
2023/07/02 06:39:11;;;;;;;;;;;;;;;;;;2198385;67;1239;-20
2023/07/02 06:41:41;;;;;;;;;;;;;;;;;;2198783;67;1218;-20
2023/07/02 06:44:12;;;;;;;;;;;;;;;;;;2194360;59;1660;-19
2023/07/02 06:46:45;;;;;;;;;;;;;;;;;;2198642;67;1245;-20
2023/07/02 06:49:15;;;;;;;;;;;;;;;;;;2197690;67;1945;-20
2023/07/02 06:51:45;;;;;;;;;;;;;;;;;;2198201;59;1597;-19
2023/07/02 06:54:15;;;;;;;;;;;;;;;;;;2197989;67;1792;-20
2023/07/02 06:56:46;;;;;;;;;;;;;;;;;;2198116;67;1311;-19
2023/07/02 06:59:20;;;;;;;;;;;;;;;;;;2198511;59;1820;-19
2023/07/02 07:01:50;;;;;;;;;;;;;;;;;;2198580;67;1228;-19
2023/07/02 07:04:20;;;;;;;;;;;;;;;;;;2198542;67;1340;-19
2023/07/02 07:06:51;;;;;;;;;;;;;;;;;;2198884;67;1884;-20
2023/07/02 07:09:21;;;;;;;;;;;;;;;;;;2198677;67;1945;-19
2023/07/02 07:11:52;;;;;;;;;;;;;;;;;;2196294;67;1656;-20
2023/07/02 07:14:22;;;;;;;;;;;;;;;;;;2197889;59;1742;-19
2023/07/02 07:16:52;;;;;;;;;;;;;;;;;;2195396;67;1585;-19
2023/07/02 07:19:22;;;;;;;;;;;;;;;;;;2198608;67;1656;-19
2023/07/02 07:21:52;;;;;;;;;;;;;;;;;;2198717;59;2239;-19
2023/07/02 07:24:23;;;;;;;;;;;;;;;;;;2198511;67;1469;-19
2023/07/02 07:26:53;;;;;;;;;;;;;;;;;;2194817;67;1792;-20
2023/07/02 07:29:23;;;;;;;;;;;;;;;;;;2198198;67;1936;-19
2023/07/02 07:31:53;;;;;;;;;;;;;;;;;;2198223;59;1270;-20
2023/07/02 07:34:23;;;;;;;;;;;;;;;;;;2198701;67;1648;-20
2023/07/02 07:36:54;;;;;;;;;;;;;;;;;;2198417;67;1767;-20
2023/07/02 07:39:24;;;;;;;;;;;;;;;;;;2198343;67;1278;-20
2023/07/02 07:41:54;;;;;;;;;;;;;;;;;;2195195;67;1710;-19
2023/07/02 07:44:28;;;;;;;;;;;;;;;;;;2197098;59;2335;-19
2023/07/02 07:46:58;;;;;;;;;;;;;;;;;;2196622;59;3024;-20
2023/07/02 07:49:29;;;;;;;;;;;;;;;;;;2196808;59;2166;-20
2023/07/02 07:51:59;;;;;;;;;;;;;;;;;;2198108;59;2145;-20
2023/07/02 07:54:29;;;;;;;;;;;;;;;;;;2197997;67;1223;-20
2023/07/02 07:56:59;;;;;;;;;;;;;;;;;;2198070;67;1775;-20
2023/07/02 07:59:30;;;;;;;;;;;;;;;;;;2198314;59;1809;-20
2023/07/02 08:02:00;;;;;;;;;;;;;;;;;;2198537;67;1770;-20
2023/07/02 08:04:30;;;;;;;;;;;;;;;;;;2198287;67;2007;-33
2023/07/02 08:07:04;;;;;;;;;;;;;;;;;;2198542;67;1744;-20
2023/07/02 08:09:34;;;;;;;;;;;;;;;;;;2198645;67;1932;-19
2023/07/02 08:12:04;;;;;;;;;;;;;;;;;;2198413;67;1693;-20
2023/07/02 08:14:35;;;;;;;;;;;;;;;;;;2198175;59;1307;-19
2023/07/02 08:17:08;;;;;;;;;;;;;;;;;;2194810;67;1722;-20
2023/07/02 08:19:38;;;;;;;;;;;;;;;;;;2198206;67;1688;-19
2023/07/02 08:22:08;;;;;;;;;;;;;;;;;;2198160;59;1779;-20
2023/07/02 08:24:39;;;;;;;;;;;;;;;;;;2198296;59;2318;-20
2023/07/02 08:27:10;;;;;;;;;;;;;;;;;;2197969;59;1989;-21
2023/07/02 08:29:40;;;;;;;;;;;;;;;;;;2198349;67;1924;-20
2023/07/02 08:32:10;;;;;;;;;;;;;;;;;;2198070;59;1651;-20
2023/07/02 08:34:41;;;;;;;;;;;;;;;;;;2195675;67;1413;-20
2023/07/02 08:37:11;;;;;;;;;;;;;;;;;;2198345;67;1534;-20
2023/07/02 08:39:41;;;;;;;;;;;;;;;;;;2198507;67;1295;-20
2023/07/02 08:42:11;;;;;;;;;;;;;;;;;;2198234;67;1314;-20
2023/07/02 08:44:45;;;;;;;;;;;;;;;;;;2198588;59;1592;-19
2023/07/02 08:47:15;;;;;;;;;;;;;;;;;;2196937;59;3019;-19
2023/07/02 08:49:47;;;;;;;;;;;;;;;;;;2194063;59;3186;-19
2023/07/02 08:52:17;;;;;;;;;;;;;;;;;;2194631;59;2495;-19
2023/07/02 08:54:48;;;;;;;;;;;;;;;;;;2197573;59;2111;-19
2023/07/02 08:57:18;;;;;;;;;;;;;;;;;;2197036;67;2823;-19
2023/07/02 08:59:51;;;;;;;;;;;;;;;;;;2194766;59;1976;-19
2023/07/02 09:02:33;;;;;;;;;;;;;;;;;;2197271;59;1891;-19
2023/07/02 09:05:04;;;;;;;;;;;;;;;;;;2195256;59;2221;-19
2023/07/02 09:07:43;;;;;;;;;;;;;;;;;;2196152;59;2186;-19
2023/07/02 09:10:27;;;;;;;;;;;;;;;;;;2195663;59;2193;-19
2023/07/02 09:13:05;;;;;;;;;;;;;;;;;;2193646;67;1951;-19
2023/07/02 09:15:39;;;;;;;;;;;;;;;;;;2195276;59;2577;-20
2023/07/02 09:18:15;;;;;;;;;;;;;;;;;;2196797;59;2488;-19
2023/07/02 09:20:46;;;;;;;;;;;;;;;;;;2197631;67;1841;-20
2023/07/02 09:23:16;;;;;;;;;;;;;;;;;;2197147;59;2628;-19
2023/07/02 09:25:46;;;;;;;;;;;;;;;;;;2198012;59;2236;-19
2023/07/02 09:28:18;;;;;;;;;;;;;;;;;;2197026;59;2818;-19
2023/07/02 09:30:57;;;;;;;;;;;;;;;;;;2192350;59;2091;-19
2023/07/02 09:33:28;;;;;;;;;;;;;;;;;;2197477;59;2445;-19
2023/07/02 09:35:58;;;;;;;;;;;;;;;;;;2197104;67;1910;-20
2023/07/02 09:38:32;;;;;;;;;;;;;;;;;;2197804;59;2017;-19
2023/07/02 09:41:02;;;;;;;;;;;;;;;;;;2197410;67;2078;-19
2023/07/02 09:43:32;;;;;;;;;;;;;;;;;;2194943;59;2537;-19
2023/07/02 09:46:03;;;;;;;;;;;;;;;;;;2197352;67;1960;-19
2023/07/02 09:48:35;;;;;;;;;;;;;;;;;;2196079;59;3395;-19
2023/07/02 09:51:05;;;;;;;;;;;;;;;;;;2196576;59;3229;-20
2023/07/02 09:53:35;;;;;;;;;;;;;;;;;;2197994;59;2981;-19
2023/07/02 09:56:07;;;;;;;;;;;;;;;;;;2197231;59;2879;-20
2023/07/02 09:58:37;;;;;;;;;;;;;;;;;;2197652;59;2321;-20
2023/07/02 10:01:08;;;;;;;;;;;;;;;;;;2192533;59;3644;-19
2023/07/02 10:03:38;;;;;;;;;;;;;;;;;;2193531;59;2183;-19
2023/07/02 10:06:08;;;;;;;;;;;;;;;;;;2197562;67;2363;-20
2023/07/02 10:08:38;;;;;;;;;;;;;;;;;;2197334;59;2149;-19
2023/07/02 10:11:13;;;;;;;;;;;;;;;;;;2198200;59;1933;-19
2023/07/02 10:13:56;;;;;;;;;;;;;;;;;;2197908;59;2285;-19
2023/07/02 10:16:27;;;;;;;;;;;;;;;;;;2197632;67;2537;-19
2023/07/02 10:19:10;;;;;;;;;;;;;;;;;;2197954;67;2176;-20
2023/07/02 10:21:41;;;;;;;;;;;;;;;;;;2198422;59;1776;-20
2023/07/02 10:24:15;;;;;;;;;;;;;;;;;;2193780;59;2170;-20
2023/07/02 10:26:54;;;;;;;;;;;;;;;;;;2197231;59;2540;-19
2023/07/02 10:29:24;;;;;;;;;;;;;;;;;;2197823;60;2106;-20
2023/07/02 10:31:56;;;;;;;;;;;;;;;;;;2198203;59;2063;-19
2023/07/02 10:34:33;;;;;;;;;;;;;;;;;;2197997;59;1776;-19
2023/07/02 10:37:04;;;;;;;;;;;;;;;;;;2197910;63;1902;-20
2023/07/02 10:39:38;;;;;;;;;;;;;;;;;;2197796;59;2205;-20
2023/07/02 10:42:09;;;;;;;;;;;;;;;;;;2198042;67;1973;-19
2023/07/02 10:44:52;;;;;;;;;;;;;;;;;;2198474;59;1913;-20
2023/07/02 10:47:22;;;;;;;;;;;;;;;;;;2198258;67;3032;-19
2023/07/02 10:49:52;;;;;;;;;;;;;;;;;;2196995;59;2728;-19
2023/07/02 10:52:36;;;;;;;;;;;;;;;;;;2198052;59;2280;-19
2023/07/02 10:55:06;;;;;;;;;;;;;;;;;;2197468;67;1845;-19
2023/07/02 10:57:37;;;;;;;;;;;;;;;;;;2197916;59;1892;-19
2023/07/02 11:00:08;;;;;;;;;;;;;;;;;;2197128;67;2543;-19
2023/07/02 11:02:38;;;;;;;;;;;;;;;;;;2194173;59;2437;-19
2023/07/02 11:05:14;;;;;;;;;;;;;;;;;;2193643;59;2313;-19
2023/07/02 11:07:45;;;;;;;;;;;;;;;;;;2197543;59;1931;-20
2023/07/02 11:10:19;;;;;;;;;;;;;;;;;;2196917;67;2508;-19
2023/07/02 11:12:49;;;;;;;;;;;;;;;;;;2197951;67;2808;-19
2023/07/02 11:15:20;;;;;;;;;;;;;;;;;;2197513;59;2576;-20
2023/07/02 11:17:50;;;;;;;;;;;;;;;;;;2194740;67;1986;-19
2023/07/02 11:20:33;;;;;;;;;;;;;;;;;;2198228;67;2180;-20
2023/07/02 11:23:03;;;;;;;;;;;;;;;;;;2198887;59;1943;-20
2023/07/02 11:25:37;;;;;;;;;;;;;;;;;;2195121;67;1977;-20
2023/07/02 11:28:07;;;;;;;;;;;;;;;;;;2198212;59;1890;-19
2023/07/02 11:30:45;;;;;;;;;;;;;;;;;;2198461;59;1940;-20
2023/07/02 11:33:15;;;;;;;;;;;;;;;;;;2198089;67;2384;-17
2023/07/02 11:35:45;;;;;;;;;;;;;;;;;;2197853;67;1874;-17
2023/07/02 11:38:15;;;;;;;;;;;;;;;;;;2197399;59;2916;-17
2023/07/02 11:40:48;;;;;;;;;;;;;;;;;;2198032;67;2696;-17
2023/07/02 11:43:18;;;;;;;;;;;;;;;;;;2198089;59;2209;-17
2023/07/02 11:45:49;;;;;;;;;;;;;;;;;;2195359;59;1907;-18
2023/07/02 11:48:19;;;;;;;;;;;;;;;;;;2198040;67;1679;-18
2023/07/02 11:50:49;;;;;;;;;;;;;;;;;;2197318;59;2401;-17
2023/07/02 11:53:19;;;;;;;;;;;;;;;;;;2198076;59;2346;-18
2023/07/02 11:55:52;;;;;;;;;;;;;;;;;;2197958;67;1779;-18
2023/07/02 11:58:23;;;;;;;;;;;;;;;;;;2195240;59;2023;-17
2023/07/02 12:00:53;;;;;;;;;;;;;;;;;;2194972;59;2256;-17
2023/07/02 12:03:23;;;;;;;;;;;;;;;;;;2198201;67;1971;-17
2023/07/02 12:05:53;;;;;;;;;;;;;;;;;;2194140;67;2608;-18
2023/07/02 12:08:24;;;;;;;;;;;;;;;;;;2194990;67;1807;-18
2023/07/02 12:10:54;;;;;;;;;;;;;;;;;;2197924;67;2012;-19
2023/07/02 12:13:24;;;;;;;;;;;;;;;;;;2197767;67;1970;-20
2023/07/02 12:15:54;;;;;;;;;;;;;;;;;;2197646;59;2206;-21
2023/07/02 12:18:25;;;;;;;;;;;;;;;;;;2192239;67;1917;-19
2023/07/02 12:20:55;;;;;;;;;;;;;;;;;;2194421;59;2321;-21
2023/07/02 12:23:25;;;;;;;;;;;;;;;;;;2198549;59;1757;-21
2023/07/02 12:25:55;;;;;;;;;;;;;;;;;;2197705;59;2328;-20
2023/07/02 12:28:26;;;;;;;;;;;;;;;;;;2198043;59;2736;-20
2023/07/02 12:30:56;;;;;;;;;;;;;;;;;;2198102;59;2335;-21
2023/07/02 12:33:26;;;;;;;;;;;;;;;;;;2198631;67;2761;-20
2023/07/02 12:35:57;;;;;;;;;;;;;;;;;;2193911;67;1897;-20
2023/07/02 12:38:27;;;;;;;;;;;;;;;;;;2189887;67;2658;-20
2023/07/02 12:40:57;;;;;;;;;;;;;;;;;;2195335;59;1865;-19
2023/07/02 12:43:28;;;;;;;;;;;;;;;;;;2198118;59;2263;-20
2023/07/02 12:45:58;;;;;;;;;;;;;;;;;;2196527;59;1943;-20
2023/07/02 12:48:28;;;;;;;;;;;;;;;;;;2197775;67;1300;-20
2023/07/02 12:50:59;;;;;;;;;;;;;;;;;;2197059;59;2470;-19
2023/07/02 12:53:29;;;;;;;;;;;;;;;;;;2196326;59;2665;-20
2023/07/02 12:55:59;;;;;;;;;;;;;;;;;;2197158;59;2707;-20
2023/07/02 12:58:29;;;;;;;;;;;;;;;;;;2194054;59;2791;-20
2023/07/02 13:01:00;;;;;;;;;;;;;;;;;;2194392;59;1862;-20
2023/07/02 13:03:30;;;;;;;;;;;;;;;;;;2198155;67;2583;-20
2023/07/02 13:06:01;;;;;;;;;;;;;;;;;;2197684;67;2336;-20
2023/07/02 13:08:31;;;;;;;;;;;;;;;;;;2191963;59;2163;-20
2023/07/02 13:11:01;;;;;;;;;;;;;;;;;;2194416;67;2495;-20
2023/07/02 13:13:32;;;;;;;;;;;;;;;;;;2195379;59;2809;-21
2023/07/02 13:16:02;;;;;;;;;;;;;;;;;;2194325;59;1857;-20
2023/07/02 13:18:32;;;;;;;;;;;;;;;;;;2198503;67;2817;-20
2023/07/02 13:21:03;;;;;;;;;;;;;;;;;;2197954;59;1799;-18
2023/07/02 13:23:33;;;;;;;;;;;;;;;;;;2194969;67;1911;-18
2023/07/02 13:26:03;;;;;;;;;;;;;;;;;;2197128;59;2135;-21
2023/07/02 13:28:33;;;;;;;;;;;;;;;;;;2198219;59;2384;-18
2023/07/02 13:31:04;;;;;;;;;;;;;;;;;;2193861;59;2099;-19
2023/07/02 13:33:34;;;;;;;;;;;;;;;;;;2197446;59;1833;-21
2023/07/02 13:36:04;;;;;;;;;;;;;;;;;;2197105;67;1893;-21
2023/07/02 13:38:35;;;;;;;;;;;;;;;;;;2197185;59;1675;-20
2023/07/02 13:41:05;;;;;;;;;;;;;;;;;;2197204;67;2015;-20
2023/07/02 13:43:35;;;;;;;;;;;;;;;;;;2197553;59;1751;-20
2023/07/02 13:46:05;;;;;;;;;;;;;;;;;;2197867;67;2285;-20
2023/07/02 13:48:36;;;;;;;;;;;;;;;;;;2197838;59;2005;-20
2023/07/02 13:51:07;;;;;;;;;;;;;;;;;;2197146;59;1961;-18
2023/07/02 13:53:38;;;;;;;;;;;;;;;;;;2196421;59;2813;-17
2023/07/02 13:56:08;;;;;;;;;;;;;;;;;;2197244;67;2233;-18
2023/07/02 13:58:56;;;;;;;;;;;;;;;;;;2194933;59;1785;-17
2023/07/02 14:01:27;;;;;;;;;;;;;;;;;;2198583;59;1865;-18
2023/07/02 14:03:57;;;;;;;;;;;;;;;;;;2198527;67;1878;-18
2023/07/02 14:06:27;;;;;;;;;;;;;;;;;;2198886;67;2356;-19
2023/07/02 14:08:58;;;;;;;;;;;;;;;;;;2198558;67;3312;-19
2023/07/02 14:11:28;;;;;;;;;;;;;;;;;;2195321;67;1500;-20
2023/07/02 14:13:59;;;;;;;;;;;;;;;;;;2198301;67;1952;-20
2023/07/02 14:16:29;;;;;;;;;;;;;;;;;;2198528;67;1852;-20
2023/07/02 14:18:59;;;;;;;;;;;;;;;;;;2198313;67;1853;-19
2023/07/02 14:21:29;;;;;;;;;;;;;;;;;;2198889;59;2137;-19
2023/07/02 14:24:00;;;;;;;;;;;;;;;;;;2195527;67;2212;-19
2023/07/02 14:26:30;;;;;;;;;;;;;;;;;;2199167;59;1646;-19
2023/07/02 14:29:00;;;;;;;;;;;;;;;;;;2198876;67;1926;-19
2023/07/02 14:31:31;;;;;;;;;;;;;;;;;;2198143;59;1337;-19
2023/07/02 14:34:01;;;;;;;;;;;;;;;;;;2198241;67;1246;-19
2023/07/02 14:36:31;;;;;;;;;;;;;;;;;;2196126;59;2069;-21
2023/07/02 14:39:02;;;;;;;;;;;;;;;;;;2198645;59;2112;-18
2023/07/02 14:41:35;;;;;;;;;;;;;;;;;;2198234;60;1846;-19
2023/07/02 14:44:05;;;;;;;;;;;;;;;;;;2194947;67;1734;-19
2023/07/02 14:46:35;;;;;;;;;;;;;;;;;;2198771;67;1354;-19
2023/07/02 14:49:09;;;;;;;;;;;;;;;;;;2199229;67;1964;-19
2023/07/02 14:51:39;;;;;;;;;;;;;;;;;;2197706;59;1698;-19
2023/07/02 14:54:09;;;;;;;;;;;;;;;;;;2197875;67;2812;-19
2023/07/02 14:56:39;;;;;;;;;;;;;;;;;;2199225;67;2325;-20
2023/07/02 14:59:10;;;;;;;;;;;;;;;;;;2198948;59;1912;-19
2023/07/02 15:01:40;;;;;;;;;;;;;;;;;;2198762;59;2055;-19
2023/07/02 15:04:10;;;;;;;;;;;;;;;;;;2198483;67;1821;-19
2023/07/02 15:06:40;;;;;;;;;;;;;;;;;;2198686;67;2810;-20
2023/07/02 15:09:11;;;;;;;;;;;;;;;;;;2198960;67;2007;-20
2023/07/02 15:11:41;;;;;;;;;;;;;;;;;;2195423;59;1815;-19
2023/07/02 15:14:11;;;;;;;;;;;;;;;;;;2197878;59;2185;-19
2023/07/02 15:16:41;;;;;;;;;;;;;;;;;;2198868;67;1714;-20
2023/07/02 15:19:12;;;;;;;;;;;;;;;;;;2198046;59;2203;-19
2023/07/02 15:21:42;;;;;;;;;;;;;;;;;;2194815;59;1929;-19
2023/07/02 15:24:13;;;;;;;;;;;;;;;;;;2197783;59;2103;-19
2023/07/02 15:26:43;;;;;;;;;;;;;;;;;;2195702;59;1686;-18
2023/07/02 15:29:13;;;;;;;;;;;;;;;;;;2198375;67;2014;-18
2023/07/02 15:31:45;;;;;;;;;;;;;;;;;;2198690;59;1341;-18
2023/07/02 15:34:18;;;;;;;;;;;;;;;;;;2194763;67;1267;-18
2023/07/02 15:36:48;;;;;;;;;;;;;;;;;;2197835;67;1436;-19
2023/07/02 15:39:22;;;;;;;;;;;;;;;;;;2198242;67;2013;-18
2023/07/02 15:41:52;;;;;;;;;;;;;;;;;;2198256;67;1278;-18
2023/07/02 15:44:22;;;;;;;;;;;;;;;;;;2197465;67;1674;-18
2023/07/02 15:46:53;;;;;;;;;;;;;;;;;;2195487;67;1326;-18
2023/07/02 15:49:23;;;;;;;;;;;;;;;;;;2198296;59;1938;-18
2023/07/02 15:51:54;;;;;;;;;;;;;;;;;;2197937;59;1398;-19
2023/07/02 15:54:24;;;;;;;;;;;;;;;;;;2197547;67;1776;-18
2023/07/02 15:56:55;;;;;;;;;;;;;;;;;;2197744;67;1747;-18
2023/07/02 15:59:25;;;;;;;;;;;;;;;;;;2197840;59;1809;-18
2023/07/02 16:01:55;;;;;;;;;;;;;;;;;;2195038;67;1167;-18
2023/07/02 16:04:25;;;;;;;;;;;;;;;;;;2194978;67;1976;-18
2023/07/02 16:06:56;;;;;;;;;;;;;;;;;;2195509;59;1477;-18
2023/07/02 16:09:26;;;;;;;;;;;;;;;;;;2198149;67;1936;-18
2023/07/02 16:11:56;;;;;;;;;;;;;;;;;;2198873;67;1585;-18
2023/07/02 16:14:26;;;;;;;;;;;;;;;;;;2198572;59;1627;-18
2023/07/02 16:16:57;;;;;;;;;;;;;;;;;;2194315;59;2292;-17
2023/07/02 16:19:27;;;;;;;;;;;;;;;;;;2196389;59;2456;-18
2023/07/02 16:21:57;;;;;;;;;;;;;;;;;;2196119;59;1751;-18
2023/07/02 16:24:29;;;;;;;;;;;;;;;;;;2195135;67;2148;-21
2023/07/02 16:26:59;;;;;;;;;;;;;;;;;;2196605;59;2199;-19
2023/07/02 16:29:30;;;;;;;;;;;;;;;;;;2194791;59;4004;-19
2023/07/02 16:32:00;;;;;;;;;;;;;;;;;;2194992;59;1259;-19
2023/07/02 16:34:31;;;;;;;;;;;;;;;;;;2198318;59;1667;-18
2023/07/02 16:37:01;;;;;;;;;;;;;;;;;;2198514;67;1819;-19
2023/07/02 16:39:31;;;;;;;;;;;;;;;;;;2197954;59;1266;-19
2023/07/02 16:42:02;;;;;;;;;;;;;;;;;;2198009;67;1674;-20
2023/07/02 16:44:35;;;;;;;;;;;;;;;;;;2198393;59;1648;-20
2023/07/02 16:47:05;;;;;;;;;;;;;;;;;;2191935;59;1708;-19
2023/07/02 16:49:35;;;;;;;;;;;;;;;;;;2198465;67;1924;-20
2023/07/02 16:52:06;;;;;;;;;;;;;;;;;;2197884;59;2017;-19
2023/07/02 16:54:37;;;;;;;;;;;;;;;;;;2198448;67;1620;-19
2023/07/02 16:57:09;;;;;;;;;;;;;;;;;;2194888;67;2078;-18
2023/07/02 16:59:39;;;;;;;;;;;;;;;;;;2198562;59;2021;-19
2023/07/02 17:02:10;;;;;;;;;;;;;;;;;;2194890;59;1504;-20
2023/07/02 17:04:40;;;;;;;;;;;;;;;;;;2198560;67;1390;-19
2023/07/02 17:07:10;;;;;;;;;;;;;;;;;;2197312;67;2157;-18
2023/07/02 17:09:45;;;;;;;;;;;;;;;;;;2198105;67;1939;-19
2023/07/02 17:12:17;;;;;;;;;;;;;;;;;;2197949;67;1114;-19
2023/07/02 17:14:48;;;;;;;;;;;;;;;;;;2198408;59;1230;-19
2023/07/02 17:17:20;;;;;;;;;;;;;;;;;;2194512;67;1675;-19
2023/07/02 17:19:54;;;;;;;;;;;;;;;;;;2197711;67;2650;-19
2023/07/02 17:22:29;;;;;;;;;;;;;;;;;;2197566;59;1992;-19
2023/07/02 17:25:02;;;;;;;;;;;;;;;;;;2198060;59;2569;-19
2023/07/02 17:27:33;;;;;;;;;;;;;;;;;;2197704;59;1857;-19
2023/07/02 17:30:05;;;;;;;;;;;;;;;;;;2197055;59;2248;-19